createdAt,value
2023-04-10T00:02:13.857Z,6.93
2023-04-10T00:04:33.861Z,6.70
2023-04-10T00:06:54.611Z,5.93
2023-04-10T00:09:14.891Z,9.85
2023-04-10T00:11:34.876Z,10.32
2023-04-10T00:13:55.240Z,9.68
2023-04-10T00:16:15.870Z,7.65
2023-04-10T00:18:36.112Z,7.45
2023-04-10T00:20:56.300Z,6.43
2023-04-10T00:23:16.405Z,7.85
2023-04-10T00:25:36.533Z,10.50
2023-04-10T00:27:56.672Z,9.90
2023-04-10T00:30:16.738Z,9.95
2023-04-10T00:32:37.015Z,8.65
2023-04-10T00:34:57.111Z,9.25
2023-04-10T00:37:17.160Z,9.23
2023-04-10T00:39:37.340Z,9.00
2023-04-10T00:41:57.806Z,8.45
2023-04-10T00:44:17.954Z,9.77
2023-04-10T00:46:39.370Z,9.35
2023-04-10T00:48:59.893Z,9.77
2023-04-10T00:51:20.589Z,8.25
2023-04-10T00:53:40.770Z,9.32
2023-04-10T00:56:02.039Z,9.45
2023-04-10T00:58:22.117Z,9.27
2023-04-10T01:00:42.406Z,10.30
2023-04-10T01:03:02.812Z,9.98
2023-04-10T01:05:23.600Z,9.40
2023-04-10T01:07:43.863Z,10.25
2023-04-10T01:10:27.463Z,6.18
2023-04-10T01:15:07.512Z,7.72
2023-04-10T01:17:50.841Z,6.45
2023-04-10T01:20:31.489Z,6.25
2023-04-10T01:23:10.473Z,6.90
2023-04-10T01:25:51.543Z,8.15
2023-04-10T01:28:11.835Z,7.28
2023-04-10T01:30:32.462Z,7.97
2023-04-10T01:32:55.441Z,7.70
2023-04-10T01:35:16.309Z,7.05
2023-04-10T01:37:40.993Z,7.25
2023-04-10T01:40:02.817Z,8.70
2023-04-10T01:42:23.665Z,8.00
2023-04-10T01:44:45.588Z,7.55
2023-04-10T01:47:07.395Z,6.53
2023-04-10T01:49:28.495Z,8.30
2023-04-10T01:51:49.752Z,7.35
2023-04-10T01:54:10.395Z,8.25
2023-04-10T01:56:30.495Z,7.45
2023-04-10T01:58:51.081Z,10.38
2023-04-10T02:01:22.455Z,11.27
2023-04-10T02:03:49.303Z,8.48
2023-04-10T02:06:15.472Z,9.75
2023-04-10T02:08:40.551Z,9.15
2023-04-10T02:11:04.006Z,8.73
2023-04-10T02:15:46.934Z,7.80
2023-04-10T02:18:07.607Z,7.25
2023-04-10T02:20:27.974Z,6.78
2023-04-10T02:22:48.766Z,8.07
2023-04-10T02:25:12.816Z,7.75
2023-04-10T02:27:34.117Z,7.38
2023-04-10T02:29:54.292Z,6.68
2023-04-10T02:32:16.720Z,7.03
2023-04-10T02:34:36.850Z,6.63
2023-04-10T02:36:57.016Z,7.53
2023-04-10T02:39:17.114Z,6.57
2023-04-10T02:41:37.382Z,6.60
2023-04-10T02:43:57.547Z,7.13
2023-04-10T02:46:17.780Z,7.07
2023-04-10T02:48:37.907Z,6.75
2023-04-10T02:50:58.470Z,7.88
2023-04-10T02:53:19.252Z,8.27
2023-04-10T02:55:40.070Z,9.43
2023-04-10T02:58:00.473Z,9.68
2023-04-10T03:00:20.752Z,6.93
2023-04-10T03:02:41.193Z,6.53
2023-04-10T03:05:02.025Z,7.47
2023-04-10T03:07:21.885Z,7.35
2023-04-10T03:09:41.993Z,6.57
2023-04-10T03:12:02.313Z,8.63
2023-04-10T03:14:22.593Z,7.05
2023-04-10T03:16:43.140Z,6.65
2023-04-10T03:19:03.248Z,8.48
2023-04-10T03:21:23.318Z,6.55
2023-04-10T03:23:43.567Z,6.10
2023-04-10T03:26:04.120Z,6.72
2023-04-10T03:28:24.394Z,6.40
2023-04-10T03:30:44.622Z,7.13
2023-04-10T03:33:04.729Z,7.75
2023-04-10T03:35:25.176Z,7.47
2023-04-10T03:37:45.615Z,7.25
2023-04-10T03:40:07.372Z,7.68
2023-04-10T03:42:27.535Z,5.70
2023-04-10T03:44:47.633Z,6.25
2023-04-10T03:47:07.908Z,6.38
2023-04-10T03:49:28.143Z,6.95
2023-04-10T03:51:48.501Z,6.63
2023-04-10T03:54:08.659Z,6.80
2023-04-10T03:56:28.918Z,6.95
2023-04-10T03:58:49.312Z,7.85
2023-04-10T04:01:09.627Z,7.15
2023-04-10T04:03:29.990Z,7.28
2023-04-10T04:05:51.528Z,8.23
2023-04-10T04:08:13.347Z,9.65
2023-04-10T04:10:33.582Z,9.32
2023-04-10T04:12:53.912Z,8.88
2023-04-10T04:15:13.983Z,9.77
2023-04-10T04:17:34.230Z,9.18
2023-04-10T04:19:54.344Z,8.27
2023-04-10T04:22:15.013Z,7.65
2023-04-10T04:24:35.362Z,9.00
2023-04-10T04:26:56.540Z,8.25
2023-04-10T04:29:16.913Z,9.73
2023-04-10T04:31:37.047Z,8.98
2023-04-10T04:33:57.287Z,10.77
2023-04-10T04:36:17.811Z,13.82
2023-04-10T04:38:38.192Z,11.60
2023-04-10T04:40:58.308Z,11.02
2023-04-10T04:43:18.652Z,9.85
2023-04-10T04:45:38.778Z,8.52
2023-04-10T04:47:59.131Z,8.43
2023-04-10T04:50:19.186Z,8.80
2023-04-10T04:52:39.662Z,7.05
2023-04-10T04:54:59.739Z,6.97
2023-04-10T04:57:19.963Z,7.10
2023-04-10T04:59:40.377Z,6.72
2023-04-10T05:02:00.545Z,5.13
2023-04-10T05:04:20.818Z,5.55
2023-04-10T05:06:41.433Z,7.13
2023-04-10T05:09:01.535Z,5.18
2023-04-10T05:11:22.285Z,5.78
2023-04-10T05:13:42.470Z,5.43
2023-04-10T05:16:02.463Z,5.75
2023-04-10T05:18:23.087Z,6.35
2023-04-10T05:20:43.215Z,4.13
2023-04-10T05:23:03.614Z,6.50
2023-04-10T05:25:23.972Z,5.55
2023-04-10T05:27:44.089Z,6.60
2023-04-10T05:30:04.258Z,4.70
2023-04-10T05:32:24.532Z,5.13
2023-04-10T05:34:44.739Z,5.38
2023-04-10T05:37:04.984Z,5.05
2023-04-10T05:39:25.116Z,8.13
2023-04-10T05:41:45.259Z,12.98
2023-04-10T05:44:05.335Z,4.28
2023-04-10T05:46:25.489Z,4.72
2023-04-10T05:48:45.556Z,4.53
2023-04-10T05:51:05.763Z,5.28
2023-04-10T05:53:31.686Z,5.35
2023-04-10T05:55:52.004Z,5.25
2023-04-10T05:58:12.157Z,4.95
2023-04-10T06:00:32.331Z,6.55
2023-04-10T06:02:52.351Z,7.90
2023-04-10T06:05:12.619Z,8.02
2023-04-10T06:07:33.114Z,5.30
2023-04-10T06:09:53.056Z,5.22
2023-04-10T06:12:13.272Z,4.32
2023-04-10T06:14:33.535Z,5.30
2023-04-10T06:16:53.717Z,3.78
2023-04-10T06:19:13.974Z,4.57
2023-04-10T06:21:34.109Z,3.92
2023-04-10T06:23:54.581Z,5.15
2023-04-10T06:26:15.472Z,4.22
2023-04-10T06:28:35.298Z,4.38
2023-04-10T06:30:55.723Z,5.90
2023-04-10T06:33:15.962Z,4.45
2023-04-10T06:35:36.892Z,4.32
2023-04-10T06:37:57.185Z,5.00
2023-04-10T06:40:17.656Z,4.05
2023-04-10T06:42:38.270Z,4.78
2023-04-10T06:44:58.557Z,3.60
2023-04-10T06:47:18.815Z,4.00
2023-04-10T06:49:39.182Z,3.70
2023-04-10T06:51:59.599Z,2.70
2023-04-10T06:54:21.945Z,2.92
2023-04-10T06:56:42.276Z,3.38
2023-04-10T06:59:02.663Z,3.22
2023-04-10T07:01:23.112Z,3.58
2023-04-10T07:03:43.409Z,3.33
2023-04-10T07:06:03.809Z,3.40
2023-04-10T07:08:24.060Z,3.10
2023-04-10T07:10:44.412Z,3.25
2023-04-10T07:13:04.700Z,2.92
2023-04-10T07:15:25.459Z,3.03
2023-04-10T07:17:46.074Z,2.95
2023-04-10T07:20:06.399Z,3.00
2023-04-10T07:22:27.252Z,2.90
2023-04-10T07:24:47.829Z,2.97
2023-04-10T07:27:08.034Z,2.70
2023-04-10T07:29:28.343Z,2.80
2023-04-10T07:31:48.716Z,2.85
2023-04-10T07:34:10.725Z,2.58
2023-04-10T07:36:31.252Z,2.35
2023-04-10T07:38:51.159Z,2.42
2023-04-10T07:41:11.638Z,2.20
2023-04-10T07:43:32.037Z,2.22
2023-04-10T07:45:52.873Z,2.30
2023-04-10T07:48:13.593Z,1.98
2023-04-10T07:50:35.153Z,3.28
2023-04-10T07:52:55.871Z,1.85
2023-04-10T07:55:16.461Z,2.80
2023-04-10T07:57:36.999Z,2.28
2023-04-10T07:59:57.270Z,2.97
2023-04-10T08:02:17.835Z,6.50
2023-04-10T08:04:38.805Z,7.25
2023-04-10T08:06:59.397Z,3.58
2023-04-10T08:09:19.887Z,4.65
2023-04-10T08:11:40.066Z,2.30
2023-04-10T08:14:04.860Z,2.10
2023-04-10T08:16:35.130Z,2.58
2023-04-10T08:18:56.997Z,2.50
2023-04-10T08:21:17.990Z,2.33
2023-04-10T08:23:38.556Z,2.10
2023-04-10T08:25:58.722Z,1.90
2023-04-10T08:28:20.577Z,2.72
2023-04-10T08:30:40.824Z,2.70
2023-04-10T08:33:01.063Z,2.60
2023-04-10T08:35:21.780Z,2.50
2023-04-10T08:37:43.141Z,3.30
2023-04-10T08:40:06.773Z,2.95
2023-04-10T08:42:27.422Z,2.97
2023-04-10T08:44:49.643Z,2.67
2023-04-10T08:47:10.093Z,2.47
2023-04-10T08:49:32.962Z,2.88
2023-04-10T08:54:21.385Z,2.25
2023-04-10T08:56:42.881Z,2.10
2023-04-10T08:59:03.615Z,2.35
2023-04-10T09:01:25.305Z,2.42
2023-04-10T09:03:47.859Z,3.00
2023-04-10T09:06:08.690Z,2.43
2023-04-10T09:08:29.087Z,2.50
2023-04-10T09:10:49.385Z,2.45
2023-04-10T09:13:09.483Z,1.98
2023-04-10T09:15:29.633Z,2.67
2023-04-10T09:18:00.221Z,3.03
2023-04-10T09:20:21.806Z,2.80
2023-04-10T09:22:42.349Z,2.30
2023-04-10T09:25:03.778Z,2.90
2023-04-10T09:27:30.601Z,2.17
2023-04-10T09:29:51.157Z,2.53
2023-04-10T09:32:12.094Z,2.30
2023-04-10T09:34:32.195Z,2.78
2023-04-10T09:36:56.658Z,2.58
2023-04-10T09:39:16.597Z,2.85
2023-04-10T09:41:47.924Z,3.67
2023-04-10T09:44:11.579Z,2.30
2023-04-10T09:46:31.709Z,2.85
2023-04-10T09:48:56.407Z,3.10
2023-04-10T09:51:36.885Z,2.97
2023-04-10T09:53:57.439Z,3.45
2023-04-10T09:56:17.814Z,3.90
2023-04-10T09:58:38.292Z,5.03
2023-04-10T10:00:58.623Z,3.28
2023-04-10T10:03:22.456Z,3.10
2023-04-10T10:05:44.234Z,3.42
2023-04-10T10:08:04.772Z,2.88
2023-04-10T10:10:26.013Z,3.67
2023-04-10T10:12:49.805Z,3.03
2023-04-10T10:15:09.917Z,2.92
2023-04-10T10:17:31.945Z,3.72
2023-04-10T10:19:59.843Z,3.53
2023-04-10T10:22:22.440Z,5.25
2023-04-10T10:24:46.921Z,2.33
2023-04-10T10:27:10.135Z,2.58
2023-04-10T10:29:32.333Z,2.38
2023-04-10T10:31:53.076Z,3.72
2023-04-10T10:34:15.872Z,2.10
2023-04-10T10:36:36.763Z,2.03
2023-04-10T10:39:05.878Z,1.73
2023-04-10T10:41:32.895Z,2.40
2023-04-10T10:44:02.005Z,1.65
2023-04-10T10:46:25.419Z,3.28
2023-04-10T10:48:58.535Z,4.38
2023-04-10T10:51:18.631Z,2.53
2023-04-10T10:53:40.235Z,2.28
2023-04-10T10:56:25.048Z,2.20
2023-04-10T10:58:49.647Z,2.53
2023-04-10T11:01:10.782Z,2.50
2023-04-10T11:03:31.639Z,1.80
2023-04-10T11:05:56.691Z,2.10
2023-04-10T11:08:16.844Z,2.00
2023-04-10T11:10:55.702Z,1.75
2023-04-10T11:13:17.220Z,2.30
2023-04-10T11:15:37.400Z,2.30
2023-04-10T11:17:57.820Z,2.83
2023-04-10T11:20:21.126Z,2.97
2023-04-10T11:23:00.573Z,2.15
2023-04-10T11:25:20.825Z,2.20
2023-04-10T11:27:44.302Z,1.95
2023-04-10T11:30:04.956Z,1.95
2023-04-10T11:32:25.198Z,2.67
2023-04-10T11:34:45.575Z,1.90
2023-04-10T11:37:06.470Z,1.50
2023-04-10T11:39:27.101Z,2.50
2023-04-10T11:41:51.076Z,2.20
2023-04-10T11:44:12.523Z,1.85
2023-04-10T11:46:36.312Z,1.83
2023-04-10T11:48:58.481Z,1.80
2023-04-10T11:51:18.867Z,2.20
2023-04-10T11:53:39.537Z,1.92
2023-04-10T11:55:59.969Z,1.95
2023-04-10T11:58:23.790Z,2.10
2023-04-10T12:00:44.331Z,2.15
2023-04-10T12:03:04.700Z,1.70
2023-04-10T12:05:25.381Z,1.75
2023-04-10T12:07:46.312Z,2.00
2023-04-10T12:10:07.188Z,4.80
2023-04-10T12:12:37.288Z,3.78
2023-04-10T12:14:57.787Z,4.70
2023-04-10T12:17:18.081Z,10.88
2023-04-10T12:19:38.677Z,5.10
2023-04-10T12:21:59.822Z,2.45
2023-04-10T12:24:39.025Z,2.30
2023-04-10T12:27:00.431Z,2.20
2023-04-10T12:29:27.168Z,2.28
2023-04-10T12:31:47.798Z,2.63
2023-04-10T12:34:10.733Z,2.08
2023-04-10T12:36:34.063Z,2.17
2023-04-10T12:38:54.556Z,2.10
2023-04-10T12:41:20.667Z,2.13
2023-04-10T12:43:41.929Z,2.42
2023-04-10T12:46:02.859Z,1.65
2023-04-10T12:48:23.800Z,2.13
2023-04-10T12:50:47.536Z,2.05
2023-04-10T12:53:08.437Z,1.50
2023-04-10T12:55:29.050Z,1.70
2023-04-10T12:57:51.280Z,1.33
2023-04-10T13:00:12.279Z,2.38
2023-04-10T13:02:32.689Z,1.65
2023-04-10T13:04:53.235Z,1.55
2023-04-10T13:07:13.269Z,3.03
2023-04-10T13:09:33.416Z,1.42
2023-04-10T13:11:53.519Z,1.80
2023-04-10T13:14:13.797Z,1.27
2023-04-10T13:16:34.467Z,1.30
2023-04-10T13:18:55.147Z,1.80
2023-04-10T13:21:19.235Z,1.42
2023-04-10T13:23:39.111Z,1.65
2023-04-10T13:25:59.225Z,1.63
2023-04-10T13:28:20.824Z,1.45
2023-04-10T13:30:41.706Z,1.20
2023-04-10T13:33:01.874Z,1.40
2023-04-10T13:35:22.395Z,1.40
2023-04-10T13:37:42.853Z,1.33
2023-04-10T13:40:04.430Z,1.33
2023-04-10T13:42:24.541Z,1.30
2023-04-10T13:44:45.386Z,1.30
2023-04-10T13:47:05.853Z,1.40
2023-04-10T13:49:29.467Z,1.45
2023-04-10T13:51:49.551Z,1.20
2023-04-10T13:54:10.060Z,1.20
2023-04-10T13:56:30.188Z,1.30
2023-04-10T13:58:50.475Z,1.30
2023-04-10T14:01:11.720Z,1.20
2023-04-10T14:03:32.194Z,1.20
2023-04-10T14:05:52.258Z,1.30
2023-04-10T14:08:15.150Z,1.30
2023-04-10T14:10:35.224Z,1.30
2023-04-10T14:12:55.381Z,1.42
2023-04-10T14:15:15.569Z,1.40
2023-04-10T14:17:35.790Z,1.30
2023-04-10T14:19:56.012Z,1.30
2023-04-10T14:22:16.196Z,1.10
2023-04-10T14:24:36.168Z,1.33
2023-04-10T14:26:59.957Z,1.20
2023-04-10T14:29:22.608Z,1.30
2023-04-10T14:31:57.116Z,1.20
2023-04-10T14:34:18.562Z,1.58
2023-04-10T14:36:38.548Z,1.30
2023-04-10T14:38:59.054Z,1.08
2023-04-10T14:41:19.289Z,1.20
2023-04-10T14:43:39.311Z,1.25
2023-04-10T14:45:59.278Z,1.30
2023-04-10T14:48:20.584Z,1.58
2023-04-10T14:50:40.566Z,1.13
2023-04-10T14:53:00.628Z,1.30
2023-04-10T14:55:21.148Z,1.20
2023-04-10T14:57:41.265Z,1.10
2023-04-10T15:00:01.389Z,1.00
2023-04-10T15:02:21.639Z,1.23
2023-04-10T15:04:42.506Z,1.40
2023-04-10T15:07:03.149Z,1.63
2023-04-10T15:09:23.292Z,1.30
2023-04-10T15:11:43.499Z,1.20
2023-04-10T15:14:03.876Z,2.10
2023-04-10T15:16:24.576Z,1.63
2023-04-10T15:18:51.507Z,1.20
2023-04-10T15:21:11.837Z,1.48
2023-04-10T15:23:31.985Z,1.30
2023-04-10T15:25:52.860Z,1.48
2023-04-10T15:28:13.292Z,1.10
2023-04-10T15:30:33.329Z,1.30
2023-04-10T15:32:53.456Z,1.10
2023-04-10T15:35:13.627Z,1.10
2023-04-10T15:37:35.968Z,1.20
2023-04-10T15:39:56.336Z,1.15
2023-04-10T15:42:16.585Z,1.30
2023-04-10T15:44:36.907Z,1.13
2023-04-10T15:46:57.138Z,1.30
2023-04-10T15:49:29.755Z,1.35
2023-04-10T15:51:54.504Z,1.50
2023-04-10T15:54:14.821Z,4.10
2023-04-10T15:56:35.125Z,1.40
2023-04-10T15:58:55.241Z,1.30
2023-04-10T16:01:15.438Z,1.83
2023-04-10T16:03:36.010Z,1.50
2023-04-10T16:05:57.565Z,1.83
2023-04-10T16:08:17.675Z,1.52
2023-04-10T16:10:37.732Z,1.63
2023-04-10T16:13:03.383Z,1.60
2023-04-10T16:15:23.509Z,1.50
2023-04-10T16:17:43.665Z,1.70
2023-04-10T16:20:07.330Z,1.60
2023-04-10T16:22:27.856Z,2.03
2023-04-10T16:24:48.024Z,1.85
2023-04-10T16:27:08.456Z,2.00
2023-04-10T16:29:28.648Z,1.88
2023-04-10T16:31:48.880Z,1.90
2023-04-10T16:34:09.149Z,1.98
2023-04-10T16:36:29.378Z,2.15
2023-04-10T16:38:49.821Z,1.63
2023-04-10T16:41:11.791Z,1.55
2023-04-10T16:43:32.497Z,1.67
2023-04-10T16:45:56.757Z,2.17
2023-04-10T16:48:16.977Z,1.48
2023-04-10T16:50:36.965Z,2.10
2023-04-10T16:52:58.710Z,1.90
2023-04-10T16:55:19.154Z,1.90
2023-04-10T16:57:39.516Z,2.20
2023-04-10T17:00:00.113Z,2.80
2023-04-10T17:02:24.186Z,2.00
2023-04-10T17:04:44.281Z,3.13
2023-04-10T17:07:04.775Z,2.75
2023-04-10T17:09:25.105Z,2.00
2023-04-10T17:11:45.379Z,4.00
2023-04-10T17:14:06.842Z,2.40
2023-04-10T17:16:27.178Z,2.10
2023-04-10T17:18:47.456Z,3.55
2023-04-10T17:21:11.831Z,2.10
2023-04-10T17:23:32.245Z,3.97
2023-04-10T17:25:52.913Z,3.97
2023-04-10T17:28:13.372Z,3.50
2023-04-10T17:30:33.764Z,2.55
2023-04-10T17:32:54.005Z,2.35
2023-04-10T17:35:14.275Z,2.00
2023-04-10T17:37:34.507Z,2.60
2023-04-10T17:39:54.456Z,2.25
2023-04-10T17:42:14.964Z,1.90
2023-04-10T17:44:34.954Z,2.35
2023-04-10T17:46:55.528Z,2.50
2023-04-10T17:49:15.631Z,2.28
2023-04-10T17:51:35.936Z,2.00
2023-04-10T17:53:56.349Z,2.53
2023-04-10T17:56:18.891Z,2.03
2023-04-10T17:58:39.423Z,2.40
2023-04-10T18:00:59.680Z,2.13
2023-04-10T18:03:20.479Z,2.20
2023-04-10T18:05:40.881Z,2.90
2023-04-10T18:08:01.288Z,2.67
2023-04-10T18:10:21.461Z,2.40
2023-04-10T18:12:41.891Z,2.67
2023-04-10T18:15:02.073Z,2.72
2023-04-10T18:17:22.961Z,2.58
2023-04-10T18:19:43.533Z,3.03
2023-04-10T18:22:04.047Z,3.60
2023-04-10T18:24:24.706Z,4.55
2023-04-10T18:26:45.578Z,4.10
2023-04-10T18:29:05.911Z,3.63
2023-04-10T18:31:26.607Z,3.88
2023-04-10T18:33:48.602Z,7.22
2023-04-10T18:36:20.237Z,7.07
2023-04-10T18:38:43.083Z,5.80
2023-04-10T18:41:03.381Z,3.70
2023-04-10T18:43:26.971Z,3.33
2023-04-10T18:45:47.326Z,4.82
2023-04-10T18:48:08.535Z,7.30
2023-04-10T18:50:28.502Z,6.90
2023-04-10T18:52:48.748Z,9.07
2023-04-10T18:55:09.055Z,7.88
2023-04-10T18:57:29.211Z,11.52
2023-04-10T18:59:49.537Z,9.15
2023-04-10T19:02:09.926Z,7.03
2023-04-10T19:04:30.318Z,9.73
2023-04-10T19:06:50.854Z,7.78
2023-04-10T19:09:10.988Z,5.45
2023-04-10T19:11:32.098Z,5.00
2023-04-10T19:13:52.356Z,8.65
2023-04-10T19:16:13.938Z,6.95
2023-04-10T19:18:34.217Z,6.43
2023-04-10T19:20:54.316Z,9.23
2023-04-10T19:23:14.706Z,6.82
2023-04-10T19:25:34.888Z,6.43
2023-04-10T19:27:55.203Z,8.23
2023-04-10T19:30:15.714Z,7.88
2023-04-10T19:32:35.940Z,8.77
2023-04-10T19:34:56.197Z,7.30
2023-04-10T19:37:16.296Z,6.65
2023-04-10T19:39:36.547Z,6.63
2023-04-10T19:41:57.141Z,7.15
2023-04-10T19:44:17.346Z,6.85
2023-04-10T19:46:37.483Z,6.78
2023-04-10T19:48:57.531Z,8.32
2023-04-10T19:51:18.064Z,7.38
2023-04-10T19:53:38.591Z,12.98
2023-04-10T19:55:58.879Z,10.88
2023-04-10T19:58:38.880Z,7.97
2023-04-10T20:01:07.410Z,12.50
2023-04-10T20:03:27.451Z,11.60
2023-04-10T20:05:48.258Z,8.57
2023-04-10T20:08:08.325Z,8.80
2023-04-10T20:10:28.610Z,10.00
2023-04-10T20:12:48.958Z,10.05
2023-04-10T20:15:09.428Z,12.82
2023-04-10T20:17:29.925Z,10.00
2023-04-10T20:19:50.255Z,9.40
2023-04-10T20:22:10.069Z,14.07
2023-04-10T20:24:30.245Z,34.28
2023-04-10T20:26:50.234Z,19.02
2023-04-10T20:29:10.373Z,11.23
2023-04-10T20:31:31.657Z,7.95
2023-04-10T20:36:13.956Z,9.20
2023-04-10T20:38:34.155Z,8.27
2023-04-10T20:40:54.350Z,7.57
2023-04-10T20:43:14.861Z,8.00
2023-04-10T20:45:34.897Z,8.13
2023-04-10T20:47:57.355Z,8.75
2023-04-10T20:50:17.576Z,8.18
2023-04-10T20:52:37.666Z,8.02
2023-04-10T20:54:57.773Z,6.60
2023-04-10T20:57:18.063Z,6.75
2023-04-10T20:59:37.908Z,9.75
2023-04-10T21:01:58.629Z,11.63
2023-04-10T21:04:19.444Z,8.70
2023-04-10T21:06:39.844Z,11.30
2023-04-10T21:09:00.395Z,9.23
2023-04-10T21:11:21.413Z,10.40
2023-04-10T21:13:41.475Z,9.88
2023-04-10T21:16:01.621Z,9.57
2023-04-10T21:18:21.698Z,6.90
2023-04-10T21:20:42.686Z,7.43
2023-04-10T21:23:03.052Z,8.38
2023-04-10T21:25:23.423Z,6.38
2023-04-10T21:27:43.605Z,7.65
2023-04-10T21:30:04.279Z,9.30
2023-04-10T21:32:25.317Z,8.07
2023-04-10T21:34:45.399Z,9.18
2023-04-10T21:37:06.322Z,6.88
2023-04-10T21:39:26.752Z,8.32
2023-04-10T21:41:47.127Z,8.50
2023-04-10T21:44:07.136Z,9.50
2023-04-10T21:46:27.394Z,9.65
2023-04-10T21:48:47.507Z,10.00
2023-04-10T21:51:07.932Z,7.35
2023-04-10T21:53:28.174Z,8.73
2023-04-10T21:55:49.489Z,9.27
2023-04-10T21:58:09.858Z,10.57
2023-04-10T22:00:31.027Z,10.23
2023-04-10T22:02:51.512Z,11.25
2023-04-10T22:05:13.253Z,10.45
2023-04-10T22:07:33.744Z,13.02
2023-04-10T22:09:54.219Z,9.02
2023-04-10T22:12:14.561Z,13.00
2023-04-10T22:14:34.815Z,16.13
2023-04-10T22:16:56.028Z,12.32
2023-04-10T22:19:16.391Z,11.10
2023-04-10T22:21:36.636Z,10.35
2023-04-10T22:23:56.724Z,8.43
2023-04-10T22:26:19.634Z,9.60
2023-04-10T22:28:39.889Z,8.70
2023-04-10T22:31:00.230Z,9.88
2023-04-10T22:33:20.658Z,10.43
2023-04-10T22:35:40.910Z,11.70
2023-04-10T22:38:02.985Z,9.55
2023-04-10T22:40:23.116Z,9.50
2023-04-10T22:42:43.729Z,9.20
2023-04-10T22:45:04.297Z,8.82
2023-04-10T22:47:24.777Z,7.30
2023-04-10T22:49:45.222Z,10.52
2023-04-10T22:52:05.869Z,10.98
2023-04-10T22:54:28.270Z,11.75
2023-04-10T22:56:48.916Z,12.02
2023-04-10T22:59:09.057Z,14.75
2023-04-10T23:01:29.353Z,10.55
2023-04-10T23:03:53.011Z,12.35
2023-04-10T23:06:13.246Z,12.10
2023-04-10T23:08:33.243Z,9.10
2023-04-10T23:10:56.386Z,13.88
2023-04-10T23:15:36.872Z,8.57
2023-04-10T23:17:57.047Z,7.88
2023-04-10T23:20:17.428Z,8.93
2023-04-10T23:22:37.401Z,8.48
2023-04-10T23:24:57.592Z,9.95
2023-04-10T23:27:17.653Z,9.68
2023-04-10T23:29:37.730Z,10.13
2023-04-10T23:31:57.980Z,9.80
2023-04-10T23:34:20.087Z,11.27
2023-04-10T23:36:40.428Z,9.13
2023-04-10T23:39:00.430Z,10.43
2023-04-10T23:41:20.928Z,10.07
2023-04-10T23:43:41.165Z,11.82
2023-04-10T23:46:01.443Z,11.90
2023-04-10T23:48:21.479Z,13.32
2023-04-10T23:50:41.534Z,16.27
2023-04-10T23:53:02.079Z,13.48
2023-04-10T23:55:22.857Z,12.88
2023-04-10T23:57:43.128Z,12.45
